Aérodrome :
LOGIN :

S'inscrire | Disclaimer

   EN    FR    IT 

 










Légende :    VFR   VFR Marginal   IFR   IFR Intensif   IFR Très Intensif
Visi : 
Plafond : 
>= 8 km
>= 3000ft
5 à 8 km
1000 à 3000 ft
1500m à 5 km
500 à 1000 ft
800 à 1500m
200 à 500 ft
< 800m
< 200 ft
Symboles :   Orages  Brouillard  Fortes neiges  Fortes précipitations  Vent > 20 kt
SIGMETs :   Divers  Orages  Givrage  Turbulence  Onde Orograph.  Cendres Volcan.







- Altitude de l'aérodrome : 364 ft
- Voir les cartes d'approche


LFAQ - Albert Bray

DERNIER METAR :
  • 191330Z AUTO 30007KT CAVOK 08/02 Q1023 NOSIG

METARs EXPIRÉS :
  • 191300Z AUTO 29009KT CAVOK 07/02 Q1023 NOSIG
  • 191230Z AUTO 30009KT CAVOK 08/02 Q1023 NOSIG
  • 191200Z AUTO 29009KT CAVOK 07/03 Q1023 NOSIG
  • 191130Z AUTO 30008KT CAVOK 07/03 Q1023 NOSIG
  • 191100Z AUTO 30008KT CAVOK 07/03 Q1023 NOSIG

TAF TAF LFAQ
Valide du 19 à 12h jusqu'au 19 à 21h UTC


191100Z 1912/1921 31007KT 9999 SCT030
Pas de NOTAMs connus pour ce terrain.



MET'MAP, la Météo Aéronautique d'un coup d'oeil ! - Copyright ORBIFLY Décembre 2007 - Disclaimer

ORBIFLY MET'MAP TEAM :

Programmation & Développement : Alexandra Zaïnal
Conception & Développement : Baudouin d'Aumeries
Co-Programmation & Développement : Marc-Olivier Méhu
Soutien technique & logistique : Manuel Goepfert

Contact : metmap@orbifly.com




SOURCES & CREDITS :

   NOAA